Time;durP1;ratioP1;P1;durP2;ratioP2;P2;SDS_P1;SDS_P2;PMS_P1;PMS_P2;Temp;Humidity;BMP_temperature;BMP_pressure;BME280_temperature;BME280_humidity;BME280_pressure;Samples;Min_cycle;Max_cycle;Signal;HPM_P1;HPM_P2
2023/01/16 00:01:12;;;;;;;64.40;36.47;;;7.70;99.90;;;;;;5093258;28;20185;-85
2023/01/16 00:03:37;;;;;;;67.22;32.70;;;7.70;99.90;;;;;;5091857;28;20192;-86
2023/01/16 00:06:03;;;;;;;65.77;34.10;;;7.80;99.90;;;;;;5095922;28;20212;-83
2023/01/16 00:08:29;;;;;;;64.67;34.13;;;7.80;99.90;;;;;;5095449;28;20691;-86
2023/01/16 00:10:55;;;;;;;60.10;32.88;;;7.80;99.90;;;;;;5096919;28;20173;-84
2023/01/16 00:13:21;;;;;;;63.80;34.40;;;7.80;99.90;;;;;;5097299;28;20274;-85
2023/01/16 00:15:48;;;;;;;82.23;40.87;;;7.80;99.90;;;;;;5096781;28;20177;-83
2023/01/16 00:18:15;;;;;;;64.95;36.90;;;7.80;99.90;;;;;;5097634;28;20566;-83
2023/01/16 00:20:40;;;;;;;66.18;38.80;;;7.70;99.90;;;;;;5098117;28;20173;-84
2023/01/16 00:23:06;;;;;;;63.37;35.77;;;7.70;99.90;;;;;;5095790;28;20672;-86
2023/01/16 00:25:32;;;;;;;74.20;35.47;;;7.70;99.90;;;;;;5096856;28;20253;-83
2023/01/16 00:27:58;;;;;;;63.20;35.17;;;7.70;99.90;;;;;;5095130;28;20299;-84
2023/01/16 00:30:24;;;;;;;74.23;42.57;;;7.70;99.90;;;;;;5096995;28;20824;-86
2023/01/16 00:32:50;;;;;;;58.55;33.53;;;7.70;99.90;;;;;;5096297;28;20188;-83
2023/01/16 00:35:16;;;;;;;62.23;33.40;;;7.70;99.90;;;;;;5095423;28;20218;-85
2023/01/16 00:37:41;;;;;;;58.43;33.03;;;7.70;99.90;;;;;;5096285;28;20321;-84
2023/01/16 00:40:08;;;;;;;64.50;35.30;;;7.60;99.90;;;;;;5096708;28;20426;-86
2023/01/16 00:42:33;;;;;;;61.28;33.35;;;7.50;99.90;;;;;;5095209;28;20199;-86
2023/01/16 00:44:59;;;;;;;63.63;33.47;;;7.60;99.90;;;;;;5096540;28;20532;-85
2023/01/16 00:47:25;;;;;;;68.07;34.70;;;7.50;99.90;;;;;;5094866;28;20285;-84
2023/01/16 00:49:51;;;;;;;63.43;35.77;;;7.60;99.90;;;;;;5094971;28;20208;-84
2023/01/16 00:52:16;;;;;;;58.40;32.83;;;7.60;99.90;;;;;;5096316;28;20618;-85
2023/01/16 00:54:42;;;;;;;55.63;32.00;;;7.50;99.90;;;;;;5096426;28;20493;-84
2023/01/16 00:57:09;;;;;;;69.82;40.38;;;7.50;99.90;;;;;;5096775;28;20228;-85
2023/01/16 00:59:35;;;;;;;72.72;40.60;;;7.50;99.90;;;;;;5096083;28;20180;-83
2023/01/16 01:02:00;;;;;;;65.37;34.47;;;7.50;99.90;;;;;;5095789;28;20247;-84
2023/01/16 01:04:28;;;;;;;55.40;33.00;;;7.50;99.90;;;;;;5095929;28;20180;-84
2023/01/16 01:06:54;;;;;;;65.55;36.28;;;7.50;99.90;;;;;;5095733;28;20562;-85
2023/01/16 01:09:20;;;;;;;65.10;36.80;;;7.50;99.90;;;;;;5095835;28;20171;-84
2023/01/16 01:11:45;;;;;;;58.73;33.70;;;7.60;99.90;;;;;;5095671;28;20181;-83
2023/01/16 01:14:11;;;;;;;69.47;36.00;;;7.60;99.90;;;;;;5094233;28;20192;-85
2023/01/16 01:16:37;;;;;;;71.20;37.73;;;7.60;99.90;;;;;;5094182;28;20263;-83
2023/01/16 01:19:05;;;;;;;62.13;34.70;;;7.50;99.90;;;;;;5095979;28;20462;-84
2023/01/16 01:21:31;;;;;;;66.45;36.53;;;7.50;99.90;;;;;;5094425;28;20262;-85
2023/01/16 01:23:57;;;;;;;64.33;34.33;;;7.60;99.90;;;;;;5095429;28;20678;-86
2023/01/16 01:26:23;;;;;;;64.17;33.87;;;7.60;99.90;;;;;;5095293;28;20461;-83
2023/01/16 01:28:48;;;;;;;60.50;34.77;;;7.60;99.90;;;;;;5095272;28;20448;-83
2023/01/16 01:31:14;;;;;;;60.00;35.50;;;7.50;99.90;;;;;;5094168;28;20660;-85
2023/01/16 01:33:40;;;;;;;63.53;35.27;;;7.50;99.90;;;;;;5093866;28;20245;-86
2023/01/16 01:36:07;;;;;;;67.43;35.67;;;7.50;99.90;;;;;;5093828;28;21005;-83
2023/01/16 01:38:33;;;;;;;66.28;35.35;;;7.50;99.90;;;;;;5094850;28;20201;-85
2023/01/16 01:40:59;;;;;;;63.92;35.28;;;7.50;99.90;;;;;;5095094;28;20180;-85
2023/01/16 01:43:44;;;;;;;66.47;35.63;;;7.60;99.90;;;;;;5094748;28;20203;-85
2023/01/16 01:46:19;;;;;;;61.05;39.28;;;7.60;99.90;;;;;;5094960;28;20214;-86
2023/01/16 01:48:46;;;;;;;67.55;38.15;;;7.60;99.90;;;;;;5095010;28;20180;-84
2023/01/16 01:51:21;;;;;;;87.60;51.90;;;7.50;99.90;;;;;;5095186;28;20173;-82
2023/01/16 01:53:56;;;;;;;82.63;43.80;;;7.50;99.90;;;;;;5094899;28;20194;-84
2023/01/16 01:56:37;;;;;;;68.30;37.78;;;7.40;99.90;;;;;;5094568;28;20231;-83
2023/01/16 01:59:07;;;;;;;63.75;36.88;;;7.40;99.90;;;;;;5094973;28;20231;-85
2023/01/16 02:01:33;;;;;;;67.85;34.90;;;7.30;99.90;;;;;;5093969;28;20267;-84
2023/01/16 02:04:06;;;;;;;65.03;35.38;;;7.30;99.90;;;;;;5095632;28;20188;-85
2023/01/16 02:06:42;;;;;;;64.10;34.53;;;7.30;99.90;;;;;;5094572;28;20723;-83
2023/01/16 02:09:08;;;;;;;63.70;36.30;;;7.30;99.90;;;;;;5093363;28;20699;-85
2023/01/16 02:11:55;;;;;;;57.50;34.47;;;7.30;99.90;;;;;;5094446;28;20188;-84
2023/01/16 02:14:22;;;;;;;65.97;34.33;;;7.40;99.90;;;;;;5094623;28;20173;-83
2023/01/16 02:20:08;;;;;;;64.63;36.55;;;7.30;99.90;;;;;;5094937;28;20679;-85
2023/01/16 02:22:58;;;;;;;67.82;40.47;;;7.30;99.90;;;;;;5093040;28;20291;-85
2023/01/16 02:25:44;;;;;;;65.20;36.75;;;7.40;99.90;;;;;;5094728;28;20204;-86
2023/01/16 02:28:15;;;;;;;77.43;41.03;;;7.40;99.90;;;;;;5093829;28;20695;-83
2023/01/16 02:31:18;;;;;;;71.60;39.75;;;7.40;99.90;;;;;;5092966;28;20191;-83
2023/01/16 02:33:58;;;;;;;64.22;35.72;;;7.30;99.90;;;;;;5041465;28;20283;-84
2023/01/16 02:37:00;;;;;;;62.42;35.83;;;7.30;99.90;;;;;;5096333;28;20699;-84
2023/01/16 02:39:44;;;;;;;68.47;38.00;;;7.20;99.90;;;;;;5093379;28;20176;-85
2023/01/16 02:42:26;;;;;;;64.97;36.45;;;7.10;99.90;;;;;;5092770;28;20203;-83
2023/01/16 02:45:15;;;;;;;63.65;33.47;;;7.10;99.90;;;;;;5094262;28;20204;-86
2023/01/16 02:48:21;;;;;;;74.80;43.25;;;7.20;99.90;;;;;;5093940;28;20200;-84
2023/01/16 02:50:52;;;;;;;70.53;38.30;;;7.20;99.90;;;;;;5064004;28;20195;-86
2023/01/16 02:53:21;;;;;;;65.40;38.40;;;7.10;99.90;;;;;;5092498;28;20706;-86
2023/01/16 02:56:04;;;;;;;70.32;37.15;;;7.00;99.90;;;;;;5092543;28;20235;-84
2023/01/16 02:58:32;;;;;;;71.82;38.08;;;7.10;99.90;;;;;;5093853;28;20653;-83
2023/01/16 03:00:59;;;;;;;67.53;35.60;;;7.00;99.90;;;;;;5093869;28;20221;-83
2023/01/16 03:03:53;;;;;;;66.10;36.00;;;7.00;99.90;;;;;;5093736;28;20555;-84
2023/01/16 03:06:43;;;;;;;67.85;34.75;;;7.00;99.90;;;;;;5093722;28;20207;-86
2023/01/16 03:09:41;;;;;;;63.53;35.25;;;7.00;99.90;;;;;;5092491;28;20212;-84
2023/01/16 03:12:34;;;;;;;77.57;40.88;;;7.00;99.90;;;;;;5086667;28;20184;-85
2023/01/16 03:15:18;;;;;;;72.13;40.60;;;7.00;99.90;;;;;;5094288;28;20219;-84
2023/01/16 03:18:09;;;;;;;64.03;38.30;;;7.00;99.90;;;;;;5092472;28;20204;-83
2023/01/16 03:20:57;;;;;;;62.17;35.67;;;6.90;99.90;;;;;;5092512;28;20192;-84
2023/01/16 03:23:50;;;;;;;68.15;35.60;;;6.90;99.90;;;;;;5092274;28;20723;-85
2023/01/16 03:26:41;;;;;;;72.07;36.13;;;6.80;99.90;;;;;;5093567;28;20244;-85
2023/01/16 03:29:36;;;;;;;62.97;35.63;;;6.80;99.90;;;;;;5093631;28;20211;-83
2023/01/16 03:32:19;;;;;;;82.35;38.42;;;6.80;99.90;;;;;;5093662;28;20218;-86
2023/01/16 03:35:17;;;;;;;67.95;36.78;;;6.80;99.90;;;;;;5092366;28;20253;-86
2023/01/16 03:37:56;;;;;;;73.05;41.83;;;6.80;99.90;;;;;;5092153;28;20269;-85
2023/01/16 03:40:26;;;;;;;64.43;34.90;;;6.80;99.90;;;;;;5095956;28;20179;-83
2023/01/16 03:43:13;;;;;;;72.78;37.30;;;6.80;99.90;;;;;;5096052;28;20552;-85
2023/01/16 03:45:45;;;;;;;69.00;35.92;;;6.70;99.90;;;;;;5097397;28;20212;-86
2023/01/16 03:48:22;;;;;;;66.63;36.83;;;6.70;99.90;;;;;;5095707;28;20540;-83
2023/01/16 03:50:56;;;;;;;72.07;39.00;;;6.80;99.90;;;;;;5097291;28;20660;-83
2023/01/16 03:53:28;;;;;;;66.43;37.60;;;6.80;99.90;;;;;;5095736;28;20223;-85
2023/01/16 03:56:11;;;;;;;68.70;35.70;;;6.70;99.90;;;;;;5095742;28;20247;-85
2023/01/16 03:58:39;;;;;;;65.22;34.30;;;6.80;99.90;;;;;;5095839;28;20247;-85
2023/01/16 04:01:17;;;;;;;67.68;36.88;;;6.80;99.90;;;;;;5098316;28;20195;-85
2023/01/16 04:04:24;;;;;;;71.65;38.45;;;6.80;99.90;;;;;;5096771;28;20192;-86
2023/01/16 04:06:49;;;;;;;63.92;34.40;;;6.90;99.90;;;;;;5097045;28;20172;-85
2023/01/16 04:10:00;;;;;;;62.50;35.93;;;6.80;99.90;;;;;;5096920;28;20169;-83
2023/01/16 04:12:32;;;;;;;62.28;34.75;;;6.70;99.90;;;;;;5092628;28;20217;-84
2023/01/16 04:15:04;;;;;;;67.80;35.92;;;6.70;99.90;;;;;;5095796;28;20194;-84
2023/01/16 04:17:30;;;;;;;65.10;33.97;;;6.70;99.90;;;;;;5095507;28;20287;-85
2023/01/16 04:19:56;;;;;;;60.67;34.47;;;6.70;99.90;;;;;;5097130;28;20204;-85
2023/01/16 04:22:27;;;;;;;73.03;37.95;;;6.70;99.90;;;;;;5095377;28;20773;-85
2023/01/16 04:24:57;;;;;;;217.23;90.70;;;6.70;99.90;;;;;;5095406;28;20307;-85
2023/01/16 04:27:23;;;;;;;169.07;80.13;;;6.70;99.90;;;;;;5096489;28;20193;-86
2023/01/16 04:29:49;;;;;;;95.55;51.47;;;6.70;99.90;;;;;;5095911;28;20644;-84
2023/01/16 04:32:15;;;;;;;117.20;56.63;;;6.70;99.90;;;;;;5098638;28;20222;-84
2023/01/16 04:34:40;;;;;;;193.67;95.40;;;6.70;99.90;;;;;;5095301;28;20662;-84
2023/01/16 04:37:06;;;;;;;168.23;73.00;;;6.70;99.90;;;;;;5096305;28;20249;-84
2023/01/16 04:39:32;;;;;;;127.83;56.87;;;6.70;99.90;;;;;;5096663;28;20306;-85
2023/01/16 04:41:58;;;;;;;120.03;53.37;;;6.80;99.90;;;;;;5094953;28;20437;-84
2023/01/16 04:44:23;;;;;;;115.97;50.67;;;6.80;99.90;;;;;;5095015;28;20181;-85
2023/01/16 04:46:49;;;;;;;80.23;42.13;;;7.00;99.90;;;;;;5096109;28;20176;-84
2023/01/16 04:49:15;;;;;;;98.30;48.97;;;7.10;99.90;;;;;;5094919;28;20180;-84
2023/01/16 04:51:41;;;;;;;68.50;35.33;;;7.20;99.90;;;;;;5102922;28;20184;-84
2023/01/16 04:54:08;;;;;;;67.53;34.33;;;7.30;99.90;;;;;;5106552;28;20235;-85
2023/01/16 04:56:35;;;;;;;54.63;30.85;;;7.30;99.90;;;;;;5098899;28;20537;-84
2023/01/16 04:59:01;;;;;;;46.90;27.33;;;7.30;99.90;;;;;;5096051;28;20665;-85
2023/01/16 05:01:27;;;;;;;53.47;28.83;;;7.30;99.90;;;;;;5101603;28;20229;-83
2023/01/16 05:03:54;;;;;;;50.23;29.10;;;7.40;99.90;;;;;;5111420;28;20195;-87
2023/01/16 05:06:20;;;;;;;47.03;27.48;;;7.30;99.90;;;;;;5107805;28;20224;-83
2023/01/16 05:08:45;;;;;;;39.07;24.17;;;7.20;99.90;;;;;;5094809;28;20273;-86
2023/01/16 05:11:11;;;;;;;67.73;34.80;;;7.10;99.90;;;;;;5095196;28;20160;-85
2023/01/16 05:13:37;;;;;;;67.40;32.83;;;6.90;99.90;;;;;;5103010;28;20200;-85
2023/01/16 05:16:03;;;;;;;63.37;33.20;;;6.70;99.90;;;;;;5110174;28;20244;-85
2023/01/16 05:18:29;;;;;;;60.05;34.97;;;6.60;99.90;;;;;;5096589;28;20277;-86
2023/01/16 05:20:55;;;;;;;61.20;33.47;;;6.50;99.90;;;;;;5096295;28;20177;-85
2023/01/16 05:23:21;;;;;;;58.10;32.28;;;6.40;99.90;;;;;;5110888;28;20478;-85
2023/01/16 05:25:48;;;;;;;52.53;32.73;;;6.40;99.90;;;;;;5098671;28;20290;-83
2023/01/16 05:28:14;;;;;;;63.42;34.50;;;6.40;99.90;;;;;;5095686;28;20750;-86
2023/01/16 05:30:39;;;;;;;61.93;34.23;;;6.40;99.90;;;;;;5096355;28;20180;-86
2023/01/16 05:33:06;;;;;;;60.30;31.00;;;6.40;99.90;;;;;;5106631;28;20227;-86
2023/01/16 05:35:32;;;;;;;60.03;33.65;;;6.50;99.90;;;;;;5102107;28;20188;-83
2023/01/16 05:37:57;;;;;;;68.63;33.93;;;6.50;99.90;;;;;;5099917;28;20302;-86
2023/01/16 05:40:23;;;;;;;63.67;33.13;;;6.50;99.90;;;;;;5102633;28;20267;-84
2023/01/16 05:42:49;;;;;;;57.83;31.43;;;6.60;99.90;;;;;;5103271;28;20450;-84
2023/01/16 05:45:15;;;;;;;62.77;33.10;;;6.70;99.90;;;;;;5114530;28;20207;-86
2023/01/16 05:47:40;;;;;;;60.93;32.67;;;6.90;99.90;;;;;;5113846;28;20713;-84
2023/01/16 05:50:07;;;;;;;59.37;31.47;;;7.00;99.90;;;;;;5112530;28;20221;-83
2023/01/16 05:52:32;;;;;;;58.22;32.83;;;7.00;99.90;;;;;;5095216;28;20200;-86
2023/01/16 05:54:58;;;;;;;55.57;31.90;;;7.00;99.90;;;;;;5101153;28;20235;-85
2023/01/16 05:57:24;;;;;;;60.50;30.33;;;6.80;99.90;;;;;;5100203;28;20453;-86
2023/01/16 05:59:51;;;;;;;57.17;31.10;;;6.80;99.90;;;;;;5111504;28;20642;-86
2023/01/16 06:02:18;;;;;;;55.45;31.00;;;6.90;99.90;;;;;;5112858;28;20202;-86
2023/01/16 06:04:44;;;;;;;66.45;32.80;;;6.90;99.90;;;;;;5113836;28;20179;-86
2023/01/16 06:07:10;;;;;;;61.37;34.27;;;6.80;99.90;;;;;;5114961;28;20194;-85
2023/01/16 06:09:36;;;;;;;62.33;35.60;;;6.80;99.90;;;;;;5114874;28;20179;-86
2023/01/16 06:12:01;;;;;;;56.00;31.90;;;6.70;99.90;;;;;;5094749;28;20172;-86
2023/01/16 06:14:27;;;;;;;55.63;32.43;;;6.60;99.90;;;;;;5100409;28;20211;-85
2023/01/16 06:16:53;;;;;;;50.10;30.80;;;6.60;99.90;;;;;;5114518;28;20254;-86
2023/01/16 06:19:18;;;;;;;47.67;27.40;;;6.60;99.90;;;;;;5112021;28;20195;-86
2023/01/16 06:21:44;;;;;;;52.80;28.43;;;6.70;99.90;;;;;;5113653;28;20220;-85
2023/01/16 06:24:10;;;;;;;55.23;31.00;;;6.70;99.90;;;;;;5113320;28;20271;-85
2023/01/16 06:26:35;;;;;;;59.33;32.50;;;6.70;99.90;;;;;;5113185;28;20286;-84
2023/01/16 06:29:01;;;;;;;49.60;29.60;;;6.70;99.90;;;;;;5112980;28;20790;-86
2023/01/16 06:31:27;;;;;;;55.50;30.27;;;6.70;99.90;;;;;;5114287;28;20175;-83
2023/01/16 06:33:52;;;;;;;53.70;28.87;;;6.70;99.90;;;;;;5114400;28;20606;-83
2023/01/16 06:36:18;;;;;;;44.67;27.47;;;6.80;99.90;;;;;;5104621;28;20667;-84
2023/01/16 06:38:44;;;;;;;51.10;30.13;;;6.70;99.90;;;;;;5093506;28;20208;-84
2023/01/16 06:41:10;;;;;;;50.73;29.63;;;6.70;99.90;;;;;;5093369;28;20159;-85
2023/01/16 06:43:36;;;;;;;57.40;32.80;;;6.70;99.90;;;;;;5093623;28;20660;-85
2023/01/16 06:46:02;;;;;;;63.90;33.47;;;6.80;99.90;;;;;;5091524;28;20203;-84
2023/01/16 06:48:27;;;;;;;49.90;28.93;;;6.80;99.90;;;;;;5091245;28;20275;-86
2023/01/16 06:50:54;;;;;;;49.80;26.57;;;6.70;99.90;;;;;;5092061;28;20424;-86
2023/01/16 06:53:20;;;;;;;48.03;27.08;;;6.70;99.90;;;;;;5094247;28;20603;-84
2023/01/16 06:55:46;;;;;;;49.22;28.67;;;6.70;99.90;;;;;;5106068;28;20280;-84
2023/01/16 06:58:12;;;;;;;52.58;29.40;;;6.80;99.90;;;;;;5111075;28;20198;-83
2023/01/16 07:00:38;;;;;;;49.07;29.17;;;6.70;99.90;;;;;;5109865;28;20161;-84
2023/01/16 07:03:04;;;;;;;51.08;30.35;;;6.80;99.90;;;;;;5090086;28;20184;-84
2023/01/16 07:05:31;;;;;;;53.50;28.53;;;6.80;99.90;;;;;;5100808;28;20222;-86
2023/01/16 07:07:57;;;;;;;56.13;27.95;;;6.80;99.90;;;;;;5098836;28;20494;-86
2023/01/16 07:10:24;;;;;;;52.72;28.30;;;6.80;99.90;;;;;;5106388;28;20184;-85
2023/01/16 07:12:54;;;;;;;62.17;33.10;;;6.90;99.90;;;;;;5112151;28;20559;-83
2023/01/16 07:23:44;;;;;;;57.72;27.95;;;6.90;99.90;;;;;;5111389;28;20206;-85
2023/01/16 07:26:11;;;;;;;47.03;26.85;;;6.80;99.90;;;;;;5112109;28;20215;-83
2023/01/16 07:28:38;;;;;;;49.10;27.67;;;6.90;99.90;;;;;;5114061;28;20224;-84
2023/01/16 07:31:06;;;;;;;48.28;27.42;;;6.90;99.90;;;;;;5113148;28;20168;-86
2023/01/16 07:33:33;;;;;;;47.83;26.00;;;6.90;99.90;;;;;;5113969;28;20203;-85
2023/01/16 07:35:58;;;;;;;45.22;26.27;;;6.90;99.90;;;;;;5115764;28;20152;-83
2023/01/16 07:38:24;;;;;;;45.30;25.23;;;6.90;99.90;;;;;;5113698;28;20203;-84
2023/01/16 07:40:50;;;;;;;46.77;26.40;;;7.00;99.90;;;;;;5110640;28;20428;-83
2023/01/16 07:43:15;;;;;;;42.67;26.80;;;7.00;99.90;;;;;;5094328;28;20190;-86
2023/01/16 07:45:41;;;;;;;42.20;27.10;;;7.10;99.90;;;;;;5093422;28;20239;-86
2023/01/16 07:48:07;;;;;;;48.80;27.90;;;7.20;99.90;;;;;;5091371;28;20208;-84
2023/01/16 07:50:33;;;;;;;49.07;28.60;;;7.20;99.90;;;;;;5093007;28;20383;-85
2023/01/16 07:52:59;;;;;;;49.38;27.60;;;7.20;99.90;;;;;;5093287;28;20207;-84
2023/01/16 07:55:24;;;;;;;43.90;27.80;;;7.30;99.90;;;;;;5101047;28;20270;-84
2023/01/16 07:57:50;;;;;;;42.60;26.20;;;7.30;99.90;;;;;;5102513;28;20414;-83
2023/01/16 08:00:16;;;;;;;48.43;25.20;;;7.20;99.90;;;;;;5096734;28;20188;-83
2023/01/16 08:02:42;;;;;;;42.97;24.90;;;7.20;99.90;;;;;;5107415;28;20264;-86
2023/01/16 08:05:09;;;;;;;45.33;25.10;;;7.30;99.90;;;;;;5104659;28;20222;-87
2023/01/16 08:07:35;;;;;;;38.13;22.90;;;7.30;99.90;;;;;;5104873;28;20210;-86
2023/01/16 08:10:02;;;;;;;37.57;22.03;;;7.30;99.90;;;;;;5107087;28;20188;-86
2023/01/16 08:12:29;;;;;;;43.47;25.65;;;7.30;99.90;;;;;;5101827;28;20948;-83
2023/01/16 08:14:54;;;;;;;37.80;21.90;;;7.30;99.90;;;;;;5115432;28;20194;-83
2023/01/16 08:17:20;;;;;;;35.90;21.10;;;7.20;99.90;;;;;;5101510;28;20295;-83
2023/01/16 08:19:45;;;;;;;39.37;21.27;;;7.20;99.90;;;;;;5080578;28;20196;-84
2023/01/16 08:22:11;;;;;;;39.60;23.30;;;7.20;99.90;;;;;;5075745;28;20835;-85
2023/01/16 08:24:37;;;;;;;41.23;23.70;;;7.20;99.90;;;;;;5071818;28;20188;-86
2023/01/16 08:27:02;;;;;;;37.20;21.33;;;7.20;99.90;;;;;;5075930;28;20184;-86
2023/01/16 08:29:28;;;;;;;37.30;22.03;;;7.30;99.90;;;;;;5075277;28;20207;-85
2023/01/16 08:31:54;;;;;;;34.87;23.60;;;7.30;99.90;;;;;;5075262;28;20979;-84
2023/01/16 08:34:20;;;;;;;31.80;20.27;;;7.20;99.90;;;;;;5071292;28;20955;-86
2023/01/16 08:36:46;;;;;;;36.90;21.97;;;7.20;99.90;;;;;;5075873;28;20176;-86
2023/01/16 08:39:12;;;;;;;32.33;19.27;;;7.20;99.90;;;;;;5074281;28;20211;-83
2023/01/16 08:53:01;;;;;;;35.08;19.55;;;6.80;99.90;;;;;;5103577;28;20261;-86
2023/01/16 08:55:27;;;;;;;36.70;20.27;;;6.90;99.90;;;;;;5090947;28;20236;-84
2023/01/16 08:57:53;;;;;;;35.13;19.57;;;6.90;99.90;;;;;;5089927;28;21007;-85
2023/01/16 09:00:22;;;;;;;34.93;20.57;;;6.90;99.90;;;;;;5093727;28;20835;-84
2023/01/16 09:02:47;;;;;;;32.88;19.60;;;7.00;99.90;;;;;;5093145;28;20689;-86
2023/01/16 09:05:13;;;;;;;35.70;19.80;;;6.90;99.90;;;;;;5109106;28;20226;-84
2023/01/16 09:07:40;;;;;;;30.87;19.83;;;7.00;99.90;;;;;;5094657;28;20204;-85
2023/01/16 09:10:06;;;;;;;34.40;19.88;;;7.10;99.90;;;;;;5110738;28;20183;-84
2023/01/16 09:15:16;;;;;;;35.97;21.15;;;7.10;99.90;;;;;;5094867;28;20194;-84
2023/01/16 09:17:41;;;;;;;33.97;20.10;;;7.20;99.90;;;;;;5101663;28;20719;-85
2023/01/16 09:20:08;;;;;;;28.77;17.80;;;7.20;99.90;;;;;;5110383;28;20469;-85
2023/01/16 09:22:35;;;;;;;31.30;20.08;;;7.20;99.90;;;;;;5097857;28;20463;-86
2023/01/16 09:25:01;;;;;;;29.42;17.90;;;7.30;99.90;;;;;;5095772;28;20578;-84
2023/01/16 09:27:27;;;;;;;34.90;19.93;;;7.30;99.90;;;;;;5091741;28;20208;-84
2023/01/16 09:29:52;;;;;;;30.50;17.63;;;7.30;99.90;;;;;;5089505;28;20177;-85
2023/01/16 09:32:19;;;;;;;28.53;17.13;;;7.30;99.90;;;;;;5089006;28;20264;-87
2023/01/16 09:34:45;;;;;;;31.58;18.50;;;7.30;99.90;;;;;;5093173;28;20180;-86
2023/01/16 09:37:11;;;;;;;28.58;17.58;;;7.30;99.90;;;;;;5089725;28;20673;-87
2023/01/16 09:39:37;;;;;;;29.08;16.98;;;7.30;99.90;;;;;;5095969;28;20189;-84
2023/01/16 09:45:17;;;;;;;28.83;18.83;;;7.40;99.90;;;;;;5106329;28;20799;-86
2023/01/16 09:47:50;;;;;;;29.92;17.40;;;7.40;99.90;;;;;;5102910;28;20291;-83
2023/01/16 09:50:49;;;;;;;28.58;17.48;;;7.40;99.90;;;;;;5094337;28;20176;-83
2023/01/16 09:59:54;;;;;;;27.27;17.25;;;7.50;99.90;;;;;;5090255;28;20199;-86
2023/01/16 10:02:26;;;;;;;28.17;17.63;;;7.50;99.90;;;;;;5093174;28;20456;-84
2023/01/16 10:04:54;;;;;;;29.55;16.88;;;7.50;99.90;;;;;;5092866;28;20185;-83
2023/01/16 10:07:45;;;;;;;26.55;17.05;;;7.50;99.90;;;;;;5110864;28;20814;-83
2023/01/16 10:10:27;;;;;;;29.80;18.33;;;7.50;99.90;;;;;;5103553;28;20715;-86
2023/01/16 10:13:10;;;;;;;29.55;17.27;;;7.50;99.90;;;;;;5101400;28;20196;-83
2023/01/16 10:15:41;;;;;;;29.30;17.17;;;7.40;99.90;;;;;;5103098;28;20218;-85
2023/01/16 10:18:39;;;;;;;28.23;16.60;;;7.40;99.90;;;;;;5093337;28;20204;-83
2023/01/16 10:21:27;;;;;;;33.20;18.55;;;7.50;99.90;;;;;;5110583;28;20187;-84
2023/01/16 10:24:01;;;;;;;31.98;18.15;;;7.50;99.90;;;;;;5101244;28;20200;-84
2023/01/16 10:26:54;;;;;;;26.92;16.60;;;7.50;99.90;;;;;;5098602;28;20253;-85
2023/01/16 10:29:30;;;;;;;30.77;17.60;;;7.60;99.90;;;;;;5091341;28;20191;-86
2023/01/16 10:32:19;;;;;;;30.73;17.95;;;7.50;99.90;;;;;;5097186;28;20235;-86
2023/01/16 10:35:04;;;;;;;30.10;16.63;;;7.60;99.90;;;;;;5094450;28;20669;-85
2023/01/16 10:37:32;;;;;;;28.42;16.67;;;7.60;99.90;;;;;;5094066;28;20717;-83
2023/01/16 10:40:10;;;;;;;34.05;18.70;;;7.70;99.90;;;;;;5100924;28;20180;-83
2023/01/16 10:50:58;;;;;;;27.67;16.48;;;7.60;99.90;;;;;;5095858;28;20225;-85
2023/01/16 10:53:24;;;;;;;25.80;16.60;;;7.70;99.90;;;;;;5103952;28;20249;-84
2023/01/16 10:55:52;;;;;;;27.88;16.30;;;7.70;99.90;;;;;;5097982;28;20487;-86
2023/01/16 10:58:18;;;;;;;27.50;17.75;;;7.70;99.90;;;;;;5096556;28;20206;-86
2023/01/16 11:00:44;;;;;;;23.50;15.57;;;7.70;99.90;;;;;;5095456;28;20185;-82
2023/01/16 11:03:35;;;;;;;29.45;18.17;;;7.70;99.90;;;;;;5104498;28;20723;-85
2023/01/16 11:06:25;;;;;;;26.55;15.95;;;7.70;99.90;;;;;;5098127;28;20219;-86
2023/01/16 11:08:54;;;;;;;25.58;15.02;;;7.70;99.90;;;;;;5087176;28;20218;-84
2023/01/16 11:20:08;;;;;;;26.30;15.85;;;8.00;99.90;;;;;;5103809;28;20553;-83
2023/01/16 11:22:38;;;;;;;25.73;16.45;;;8.00;99.90;;;;;;5091258;28;20196;-85
2023/01/16 11:25:04;;;;;;;26.73;16.75;;;8.10;99.90;;;;;;5099602;28;20211;-86
2023/01/16 11:27:36;;;;;;;24.60;15.73;;;8.20;99.90;;;;;;5091384;28;20707;-84
2023/01/16 11:30:06;;;;;;;27.08;16.25;;;8.10;99.90;;;;;;5091182;28;20211;-83
2023/01/16 11:32:38;;;;;;;25.73;15.70;;;8.10;99.90;;;;;;5102853;28;20208;-85
2023/01/16 11:35:12;;;;;;;27.77;17.25;;;8.20;99.90;;;;;;5100603;28;20177;-84
2023/01/16 11:37:41;;;;;;;24.27;16.00;;;8.30;99.90;;;;;;5098074;28;20630;-85
2023/01/16 11:40:14;;;;;;;22.85;14.43;;;8.30;99.90;;;;;;5090180;28;20165;-85
2023/01/16 11:48:26;;;;;;;23.63;15.70;;;8.40;99.90;;;;;;5096184;28;20585;-83
2023/01/16 11:50:55;;;;;;;30.47;17.00;;;8.40;99.90;;;;;;5098364;28;20176;-83
2023/01/16 11:53:21;;;;;;;26.85;16.40;;;8.40;99.90;;;;;;5092362;28;20621;-84
2023/01/16 11:56:10;;;;;;;24.73;16.77;;;8.50;99.90;;;;;;5093162;28;20222;-85
2023/01/16 11:59:07;;;;;;;27.88;17.60;;;8.60;99.90;;;;;;5091618;28;20461;-86
2023/01/16 12:04:41;;;;;;;26.67;16.67;;;8.50;99.90;;;;;;5096458;28;20233;-83
2023/01/16 12:07:26;;;;;;;24.70;16.25;;;8.40;99.90;;;;;;5102479;28;20196;-83
2023/01/16 12:10:00;;;;;;;23.85;16.20;;;8.40;99.90;;;;;;5098425;28;20180;-84
2023/01/16 12:15:49;;;;;;;26.15;16.48;;;8.50;99.90;;;;;;5103328;28;20239;-85
2023/01/16 12:18:43;;;;;;;24.90;15.15;;;8.50;99.90;;;;;;5101636;28;20199;-85
2023/01/16 12:21:50;;;;;;;25.00;17.20;;;8.50;99.90;;;;;;5096446;28;20196;-86
2023/01/16 12:24:43;;;;;;;24.55;15.35;;;8.60;99.90;;;;;;5094691;28;20196;-84
2023/01/16 12:27:44;;;;;;;29.33;18.50;;;8.60;99.90;;;;;;5101479;28;20196;-84
2023/01/16 12:30:50;;;;;;;26.80;18.63;;;8.70;99.90;;;;;;5109826;28;20694;-84
2023/01/16 12:33:28;;;;;;;25.20;17.55;;;8.70;99.90;;;;;;5072758;28;20208;-83
2023/01/16 12:36:22;;;;;;;24.45;16.55;;;8.70;99.90;;;;;;5107157;28;20264;-85
2023/01/16 12:39:20;;;;;;;24.65;17.92;;;8.70;99.90;;;;;;5110907;28;20208;-86
2023/01/16 12:45:23;;;;;;;25.23;16.95;;;8.80;99.90;;;;;;5092571;28;20251;-84
2023/01/16 12:48:10;;;;;;;30.05;17.23;;;8.80;99.90;;;;;;5096634;28;20270;-82
2023/01/16 12:51:02;;;;;;;33.88;20.50;;;8.70;99.90;;;;;;5107358;28;20202;-83
2023/01/16 12:53:56;;;;;;;31.67;18.85;;;8.70;99.90;;;;;;5065126;28;20242;-86
2023/01/16 12:56:41;;;;;;;31.15;19.65;;;8.70;99.90;;;;;;5073677;28;20232;-86
2023/01/16 12:59:21;;;;;;;30.42;19.35;;;8.70;99.90;;;;;;5093476;28;20209;-84
2023/01/16 13:01:55;;;;;;;30.13;18.33;;;8.70;99.90;;;;;;5097461;28;20516;-80
2023/01/16 13:04:41;;;;;;;29.83;19.52;;;8.80;99.90;;;;;;5101941;28;20288;-83
2023/01/16 13:07:13;;;;;;;27.27;18.75;;;8.80;99.90;;;;;;5098505;28;20285;-83
2023/01/16 13:09:47;;;;;;;31.40;20.10;;;8.90;99.90;;;;;;5097507;28;20231;-83
2023/01/16 13:15:23;;;;;;;26.77;18.67;;;8.90;99.90;;;;;;5105454;28;20525;-84
2023/01/16 13:17:55;;;;;;;34.05;19.50;;;9.00;99.90;;;;;;5103162;28;20578;-82
2023/01/16 13:20:23;;;;;;;28.08;18.70;;;9.00;99.90;;;;;;5090890;28;20183;-84
2023/01/16 13:22:56;;;;;;;25.92;17.55;;;9.00;99.90;;;;;;5102947;28;20196;-81
2023/01/16 13:25:30;;;;;;;29.63;19.35;;;8.90;99.90;;;;;;5094038;28;20712;-82
2023/01/16 13:28:21;;;;;;;29.90;18.05;;;8.90;99.90;;;;;;5091072;28;20393;-83
2023/01/16 13:30:47;;;;;;;23.58;17.20;;;8.90;99.90;;;;;;5062283;28;20203;-84
2023/01/16 13:33:19;;;;;;;30.25;19.38;;;9.00;99.90;;;;;;5097584;28;20191;-83
2023/01/16 13:35:55;;;;;;;29.83;18.40;;;8.90;99.90;;;;;;5096341;28;20211;-84
2023/01/16 13:38:41;;;;;;;30.33;19.17;;;9.00;99.90;;;;;;5106152;28;20688;-81
2023/01/16 13:41:15;;;;;;;28.70;18.73;;;9.00;99.90;;;;;;5105855;28;20222;-81
2023/01/16 13:47:02;;;;;;;24.52;16.67;;;9.10;99.90;;;;;;5091746;28;20285;-86
2023/01/16 13:49:29;;;;;;;25.20;18.38;;;9.00;99.90;;;;;;5092933;28;20187;-83
2023/01/16 13:51:54;;;;;;;27.60;17.80;;;9.00;99.90;;;;;;5105729;28;20176;-84
2023/01/16 13:54:28;;;;;;;24.53;17.43;;;8.90;99.90;;;;;;5104518;28;20371;-86
2023/01/16 13:57:02;;;;;;;23.65;16.33;;;9.00;99.90;;;;;;5090730;28;20204;-83
2023/01/16 13:59:38;;;;;;;22.13;15.55;;;9.00;99.90;;;;;;5092972;28;20328;-84
2023/01/16 14:02:23;;;;;;;29.10;18.75;;;9.00;99.90;;;;;;5093277;28;20325;-84
2023/01/16 14:05:05;;;;;;;29.60;18.58;;;8.90;99.90;;;;;;5101032;28;20184;-86
2023/01/16 14:11:16;;;;;;;23.10;16.60;;;8.90;99.90;;;;;;5110065;28;20199;-86
2023/01/16 14:13:42;;;;;;;22.48;15.07;;;9.00;99.90;;;;;;5079152;28;20693;-84
2023/01/16 14:16:30;;;;;;;27.48;17.90;;;9.00;99.90;;;;;;5111453;28;20268;-85
2023/01/16 14:18:56;;;;;;;24.52;16.70;;;8.90;99.90;;;;;;5101471;28;20631;-85